sensor_id;sensor_type;location;lat;lon;timestamp;P1;durP1;ratioP1;P2;durP2;ratioP2
7231;SDS011;3657;49.630;11.018;2023-07-30T00:01:55;17.63;;;17.33;;
7231;SDS011;3657;49.630;11.018;2023-07-30T00:04:21;17.57;;;17.17;;
7231;SDS011;3657;49.630;11.018;2023-07-30T00:06:48;17.80;;;17.50;;
7231;SDS011;3657;49.630;11.018;2023-07-30T00:09:15;18.63;;;18.20;;
7231;SDS011;3657;49.630;11.018;2023-07-30T00:11:43;18.00;;;17.70;;
7231;SDS011;3657;49.630;11.018;2023-07-30T00:14:09;17.57;;;17.27;;
7231;SDS011;3657;49.630;11.018;2023-07-30T00:16:36;19.53;;;19.13;;
7231;SDS011;3657;49.630;11.018;2023-07-30T00:19:03;18.40;;;18.10;;
7231;SDS011;3657;49.630;11.018;2023-07-30T00:21:29;19.70;;;19.03;;
7231;SDS011;3657;49.630;11.018;2023-07-30T00:23:56;18.23;;;17.93;;
7231;SDS011;3657;49.630;11.018;2023-07-30T00:26:23;19.23;;;18.83;;
7231;SDS011;3657;49.630;11.018;2023-07-30T00:28:52;18.57;;;18.07;;
7231;SDS011;3657;49.630;11.018;2023-07-30T00:31:19;18.80;;;18.50;;
7231;SDS011;3657;49.630;11.018;2023-07-30T00:33:46;21.23;;;20.83;;
7231;SDS011;3657;49.630;11.018;2023-07-30T00:36:12;20.03;;;19.63;;
7231;SDS011;3657;49.630;11.018;2023-07-30T00:38:39;21.70;;;21.10;;
7231;SDS011;3657;49.630;11.018;2023-07-30T00:41:06;20.13;;;19.83;;
7231;SDS011;3657;49.630;11.018;2023-07-30T00:43:32;21.30;;;20.90;;
7231;SDS011;3657;49.630;11.018;2023-07-30T00:46:00;20.30;;;19.73;;
7231;SDS011;3657;49.630;11.018;2023-07-30T00:48:27;21.20;;;20.60;;
7231;SDS011;3657;49.630;11.018;2023-07-30T00:50:55;21.30;;;20.83;;
7231;SDS011;3657;49.630;11.018;2023-07-30T00:53:22;20.27;;;19.87;;
7231;SDS011;3657;49.630;11.018;2023-07-30T00:55:51;20.83;;;20.33;;
7231;SDS011;3657;49.630;11.018;2023-07-30T00:58:18;20.77;;;20.27;;
7231;SDS011;3657;49.630;11.018;2023-07-30T01:00:46;21.93;;;21.53;;
7231;SDS011;3657;49.630;11.018;2023-07-30T01:03:14;20.83;;;20.43;;
7231;SDS011;3657;49.630;11.018;2023-07-30T01:05:41;21.13;;;20.70;;
7231;SDS011;3657;49.630;11.018;2023-07-30T01:08:08;21.43;;;21.03;;
7231;SDS011;3657;49.630;11.018;2023-07-30T01:10:34;21.33;;;20.93;;
7231;SDS011;3657;49.630;11.018;2023-07-30T01:13:03;20.50;;;20.00;;
7231;SDS011;3657;49.630;11.018;2023-07-30T01:15:30;20.33;;;19.73;;
7231;SDS011;3657;49.630;11.018;2023-07-30T01:17:58;20.13;;;19.63;;
7231;SDS011;3657;49.630;11.018;2023-07-30T01:20:30;17.83;;;17.43;;
7231;SDS011;3657;49.630;11.018;2023-07-30T01:22:59;21.23;;;20.73;;
7231;SDS011;3657;49.630;11.018;2023-07-30T01:25:26;18.67;;;18.17;;
7231;SDS011;3657;49.630;11.018;2023-07-30T01:27:58;20.77;;;20.27;;
7231;SDS011;3657;49.630;11.018;2023-07-30T01:30:26;19.97;;;19.47;;
7231;SDS011;3657;49.630;11.018;2023-07-30T01:32:56;19.07;;;18.67;;
7231;SDS011;3657;49.630;11.018;2023-07-30T01:35:26;19.33;;;18.93;;
7231;SDS011;3657;49.630;11.018;2023-07-30T01:37:54;19.63;;;19.23;;
7231;SDS011;3657;49.630;11.018;2023-07-30T01:40:22;21.20;;;20.77;;
7231;SDS011;3657;49.630;11.018;2023-07-30T01:42:49;18.17;;;17.87;;
7231;SDS011;3657;49.630;11.018;2023-07-30T01:45:16;20.13;;;19.63;;
7231;SDS011;3657;49.630;11.018;2023-07-30T01:47:43;18.33;;;17.80;;
7231;SDS011;3657;49.630;11.018;2023-07-30T01:50:10;23.77;;;23.23;;
7231;SDS011;3657;49.630;11.018;2023-07-30T01:52:36;19.07;;;18.67;;
7231;SDS011;3657;49.630;11.018;2023-07-30T01:55:03;19.00;;;18.60;;
7231;SDS011;3657;49.630;11.018;2023-07-30T01:57:32;19.37;;;18.97;;
7231;SDS011;3657;49.630;11.018;2023-07-30T01:59:59;19.67;;;19.13;;
7231;SDS011;3657;49.630;11.018;2023-07-30T02:02:25;18.43;;;18.03;;
7231;SDS011;3657;49.630;11.018;2023-07-30T02:04:52;19.83;;;19.33;;
7231;SDS011;3657;49.630;11.018;2023-07-30T02:07:19;21.17;;;20.77;;
7231;SDS011;3657;49.630;11.018;2023-07-30T02:09:45;22.00;;;21.50;;
7231;SDS011;3657;49.630;11.018;2023-07-30T02:12:12;18.30;;;18.00;;
7231;SDS011;3657;49.630;11.018;2023-07-30T02:14:40;19.57;;;19.17;;
7231;SDS011;3657;49.630;11.018;2023-07-30T02:17:07;20.33;;;19.93;;
7231;SDS011;3657;49.630;11.018;2023-07-30T02:19:33;18.40;;;17.90;;
7231;SDS011;3657;49.630;11.018;2023-07-30T02:22:00;19.17;;;18.60;;
7231;SDS011;3657;49.630;11.018;2023-07-30T02:24:26;18.40;;;18.10;;
7231;SDS011;3657;49.630;11.018;2023-07-30T02:26:53;19.40;;;18.93;;
7231;SDS011;3657;49.630;11.018;2023-07-30T02:29:20;18.63;;;18.23;;
7231;SDS011;3657;49.630;11.018;2023-07-30T02:31:48;18.30;;;18.00;;
7231;SDS011;3657;49.630;11.018;2023-07-30T02:34:15;16.90;;;16.60;;
7231;SDS011;3657;49.630;11.018;2023-07-30T02:36:41;19.27;;;18.87;;
7231;SDS011;3657;49.630;11.018;2023-07-30T02:39:08;18.13;;;17.73;;
7231;SDS011;3657;49.630;11.018;2023-07-30T02:41:35;19.23;;;18.83;;
7231;SDS011;3657;49.630;11.018;2023-07-30T02:44:01;18.33;;;17.93;;
7231;SDS011;3657;49.630;11.018;2023-07-30T02:46:28;18.40;;;18.10;;
7231;SDS011;3657;49.630;11.018;2023-07-30T02:48:56;20.73;;;20.33;;
7231;SDS011;3657;49.630;11.018;2023-07-30T02:51:23;18.50;;;18.10;;
7231;SDS011;3657;49.630;11.018;2023-07-30T02:53:51;17.20;;;16.90;;
7231;SDS011;3657;49.630;11.018;2023-07-30T02:56:18;20.10;;;19.70;;
7231;SDS011;3657;49.630;11.018;2023-07-30T02:58:44;18.23;;;17.83;;
7231;SDS011;3657;49.630;11.018;2023-07-30T03:01:11;18.30;;;17.90;;
7231;SDS011;3657;49.630;11.018;2023-07-30T03:03:38;20.20;;;19.70;;
7231;SDS011;3657;49.630;11.018;2023-07-30T03:06:06;21.90;;;21.47;;
7231;SDS011;3657;49.630;11.018;2023-07-30T03:08:33;21.17;;;20.77;;
7231;SDS011;3657;49.630;11.018;2023-07-30T03:11:01;17.27;;;16.97;;
7231;SDS011;3657;49.630;11.018;2023-07-30T03:13:27;20.30;;;19.90;;
7231;SDS011;3657;49.630;11.018;2023-07-30T03:15:54;17.83;;;17.53;;
7231;SDS011;3657;49.630;11.018;2023-07-30T03:18:21;18.53;;;18.23;;
7231;SDS011;3657;49.630;11.018;2023-07-30T03:20:48;17.97;;;17.57;;
7231;SDS011;3657;49.630;11.018;2023-07-30T03:23:16;18.03;;;17.63;;
7231;SDS011;3657;49.630;11.018;2023-07-30T03:25:42;18.40;;;18.10;;
7231;SDS011;3657;49.630;11.018;2023-07-30T03:28:09;18.37;;;17.97;;
7231;SDS011;3657;49.630;11.018;2023-07-30T03:30:36;18.50;;;18.20;;
7231;SDS011;3657;49.630;11.018;2023-07-30T03:33:03;17.40;;;17.00;;
7231;SDS011;3657;49.630;11.018;2023-07-30T03:35:29;17.63;;;17.33;;
7231;SDS011;3657;49.630;11.018;2023-07-30T03:37:56;18.50;;;18.20;;
7231;SDS011;3657;49.630;11.018;2023-07-30T03:40:24;19.60;;;19.20;;
7231;SDS011;3657;49.630;11.018;2023-07-30T03:42:51;19.33;;;18.93;;
7231;SDS011;3657;49.630;11.018;2023-07-30T03:45:17;19.63;;;19.23;;
7231;SDS011;3657;49.630;11.018;2023-07-30T03:47:44;19.03;;;18.63;;
7231;SDS011;3657;49.630;11.018;2023-07-30T03:50:11;20.47;;;20.07;;
7231;SDS011;3657;49.630;11.018;2023-07-30T03:52:37;19.53;;;19.13;;
7231;SDS011;3657;49.630;11.018;2023-07-30T03:55:04;19.47;;;19.13;;
7231;SDS011;3657;49.630;11.018;2023-07-30T03:57:32;20.13;;;19.73;;
7231;SDS011;3657;49.630;11.018;2023-07-30T03:59:59;19.33;;;19.03;;
7231;SDS011;3657;49.630;11.018;2023-07-30T04:02:26;19.50;;;19.03;;
7231;SDS011;3657;49.630;11.018;2023-07-30T04:04:52;20.57;;;20.13;;
7231;SDS011;3657;49.630;11.018;2023-07-30T04:07:19;18.67;;;18.27;;
7231;SDS011;3657;49.630;11.018;2023-07-30T04:09:46;19.33;;;19.03;;
7231;SDS011;3657;49.630;11.018;2023-07-30T04:12:13;20.50;;;20.10;;
7231;SDS011;3657;49.630;11.018;2023-07-30T04:14:41;19.93;;;19.43;;
7231;SDS011;3657;49.630;11.018;2023-07-30T04:17:07;20.17;;;19.77;;
7231;SDS011;3657;49.630;11.018;2023-07-30T04:19:34;19.53;;;19.17;;
7231;SDS011;3657;49.630;11.018;2023-07-30T04:22:00;19.73;;;19.43;;
7231;SDS011;3657;49.630;11.018;2023-07-30T04:24:27;19.30;;;18.80;;
7231;SDS011;3657;49.630;11.018;2023-07-30T04:26:54;20.40;;;19.93;;
7231;SDS011;3657;49.630;11.018;2023-07-30T04:29:20;20.23;;;19.83;;
7231;SDS011;3657;49.630;11.018;2023-07-30T04:31:48;19.87;;;19.47;;
7231;SDS011;3657;49.630;11.018;2023-07-30T04:34:15;19.43;;;19.03;;
7231;SDS011;3657;49.630;11.018;2023-07-30T04:36:42;18.93;;;18.63;;
7231;SDS011;3657;49.630;11.018;2023-07-30T04:39:09;17.97;;;17.67;;
7231;SDS011;3657;49.630;11.018;2023-07-30T04:41:37;20.57;;;20.03;;
7231;SDS011;3657;49.630;11.018;2023-07-30T04:44:04;18.90;;;18.60;;
7231;SDS011;3657;49.630;11.018;2023-07-30T04:46:30;20.33;;;19.93;;
7231;SDS011;3657;49.630;11.018;2023-07-30T04:49:01;19.77;;;19.47;;
7231;SDS011;3657;49.630;11.018;2023-07-30T04:51:28;20.57;;;20.17;;
7231;SDS011;3657;49.630;11.018;2023-07-30T04:53:55;20.93;;;20.53;;
7231;SDS011;3657;49.630;11.018;2023-07-30T04:56:22;19.30;;;19.00;;
7231;SDS011;3657;49.630;11.018;2023-07-30T04:58:51;20.10;;;19.70;;
7231;SDS011;3657;49.630;11.018;2023-07-30T05:01:18;17.63;;;17.23;;
7231;SDS011;3657;49.630;11.018;2023-07-30T05:03:44;20.43;;;20.03;;
7231;SDS011;3657;49.630;11.018;2023-07-30T05:06:12;20.53;;;20.13;;
7231;SDS011;3657;49.630;11.018;2023-07-30T05:08:39;19.80;;;19.40;;
7231;SDS011;3657;49.630;11.018;2023-07-30T05:11:06;19.70;;;19.30;;
7231;SDS011;3657;49.630;11.018;2023-07-30T05:13:32;20.07;;;19.67;;
7231;SDS011;3657;49.630;11.018;2023-07-30T05:15:59;19.80;;;19.47;;
7231;SDS011;3657;49.630;11.018;2023-07-30T05:18:26;19.40;;;19.10;;
7231;SDS011;3657;49.630;11.018;2023-07-30T05:20:53;20.43;;;20.03;;
7231;SDS011;3657;49.630;11.018;2023-07-30T05:23:21;20.03;;;19.63;;
7231;SDS011;3657;49.630;11.018;2023-07-30T05:25:48;19.90;;;19.50;;
7231;SDS011;3657;49.630;11.018;2023-07-30T05:28:15;18.07;;;17.77;;
7231;SDS011;3657;49.630;11.018;2023-07-30T05:30:41;19.10;;;18.70;;
7231;SDS011;3657;49.630;11.018;2023-07-30T05:33:08;19.43;;;19.03;;
7231;SDS011;3657;49.630;11.018;2023-07-30T05:35:35;20.17;;;19.77;;
7231;SDS011;3657;49.630;11.018;2023-07-30T05:38:01;18.30;;;17.90;;
7231;SDS011;3657;49.630;11.018;2023-07-30T05:40:29;19.23;;;18.83;;
7231;SDS011;3657;49.630;11.018;2023-07-30T05:42:56;19.50;;;19.17;;
7231;SDS011;3657;49.630;11.018;2023-07-30T05:45:23;18.23;;;17.93;;
7231;SDS011;3657;49.630;11.018;2023-07-30T05:47:49;17.83;;;17.53;;
7231;SDS011;3657;49.630;11.018;2023-07-30T05:50:16;17.70;;;17.40;;
7231;SDS011;3657;49.630;11.018;2023-07-30T05:52:43;17.73;;;17.43;;
7231;SDS011;3657;49.630;11.018;2023-07-30T05:55:10;17.93;;;17.53;;
7231;SDS011;3657;49.630;11.018;2023-07-30T05:57:38;21.10;;;20.70;;
7231;SDS011;3657;49.630;11.018;2023-07-30T06:00:05;17.73;;;17.43;;
7231;SDS011;3657;49.630;11.018;2023-07-30T06:02:33;17.97;;;17.57;;
7231;SDS011;3657;49.630;11.018;2023-07-30T06:04:59;19.27;;;18.77;;
7231;SDS011;3657;49.630;11.018;2023-07-30T06:07:26;17.67;;;17.30;;
7231;SDS011;3657;49.630;11.018;2023-07-30T06:09:53;19.07;;;18.67;;
7231;SDS011;3657;49.630;11.018;2023-07-30T06:12:19;20.53;;;20.13;;
7231;SDS011;3657;49.630;11.018;2023-07-30T06:14:47;19.20;;;18.80;;
7231;SDS011;3657;49.630;11.018;2023-07-30T06:17:14;18.87;;;18.47;;
7231;SDS011;3657;49.630;11.018;2023-07-30T06:19:41;17.23;;;16.93;;
7231;SDS011;3657;49.630;11.018;2023-07-30T06:22:07;17.50;;;17.20;;
7231;SDS011;3657;49.630;11.018;2023-07-30T06:24:34;19.33;;;18.97;;
7231;SDS011;3657;49.630;11.018;2023-07-30T06:27:01;20.60;;;20.20;;
7231;SDS011;3657;49.630;11.018;2023-07-30T06:29:27;17.70;;;17.40;;
7231;SDS011;3657;49.630;11.018;2023-07-30T06:31:55;17.63;;;17.23;;
7231;SDS011;3657;49.630;11.018;2023-07-30T06:34:22;17.07;;;16.77;;
7231;SDS011;3657;49.630;11.018;2023-07-30T06:36:48;19.60;;;19.20;;
7231;SDS011;3657;49.630;11.018;2023-07-30T06:39:15;18.30;;;17.90;;
7231;SDS011;3657;49.630;11.018;2023-07-30T06:41:42;19.07;;;18.67;;
7231;SDS011;3657;49.630;11.018;2023-07-30T06:44:08;18.53;;;18.23;;
7231;SDS011;3657;49.630;11.018;2023-07-30T06:46:35;17.83;;;17.53;;
7231;SDS011;3657;49.630;11.018;2023-07-30T06:49:02;20.00;;;19.40;;
7231;SDS011;3657;49.630;11.018;2023-07-30T06:51:29;17.47;;;17.17;;
7231;SDS011;3657;49.630;11.018;2023-07-30T06:53:55;19.20;;;18.70;;
7231;SDS011;3657;49.630;11.018;2023-07-30T06:56:22;18.00;;;17.60;;
7231;SDS011;3657;49.630;11.018;2023-07-30T06:58:49;17.93;;;17.63;;
7231;SDS011;3657;49.630;11.018;2023-07-30T07:01:15;18.03;;;17.70;;
7231;SDS011;3657;49.630;11.018;2023-07-30T07:03:42;17.83;;;17.43;;
7231;SDS011;3657;49.630;11.018;2023-07-30T07:06:10;19.13;;;18.50;;
7231;SDS011;3657;49.630;11.018;2023-07-30T07:08:37;18.03;;;17.60;;
7231;SDS011;3657;49.630;11.018;2023-07-30T07:11:03;18.13;;;17.73;;
7231;SDS011;3657;49.630;11.018;2023-07-30T07:13:30;18.03;;;17.73;;
7231;SDS011;3657;49.630;11.018;2023-07-30T07:15:57;18.40;;;18.10;;
7231;SDS011;3657;49.630;11.018;2023-07-30T07:18:23;18.57;;;18.27;;
7231;SDS011;3657;49.630;11.018;2023-07-30T07:20:50;18.60;;;18.20;;
7231;SDS011;3657;49.630;11.018;2023-07-30T07:23:18;18.00;;;17.70;;
7231;SDS011;3657;49.630;11.018;2023-07-30T07:25:45;18.03;;;17.73;;
7231;SDS011;3657;49.630;11.018;2023-07-30T07:28:11;18.83;;;18.53;;
7231;SDS011;3657;49.630;11.018;2023-07-30T07:30:38;17.87;;;17.47;;
7231;SDS011;3657;49.630;11.018;2023-07-30T07:33:05;18.40;;;18.00;;
7231;SDS011;3657;49.630;11.018;2023-07-30T07:35:34;18.80;;;18.50;;
7231;SDS011;3657;49.630;11.018;2023-07-30T07:38:00;17.03;;;16.63;;
7231;SDS011;3657;49.630;11.018;2023-07-30T07:40:28;17.60;;;17.30;;
7231;SDS011;3657;49.630;11.018;2023-07-30T07:42:56;16.70;;;16.40;;
7231;SDS011;3657;49.630;11.018;2023-07-30T07:45:23;17.77;;;17.40;;
7231;SDS011;3657;49.630;11.018;2023-07-30T07:47:49;17.30;;;17.00;;
7231;SDS011;3657;49.630;11.018;2023-07-30T07:50:16;17.30;;;16.93;;
7231;SDS011;3657;49.630;11.018;2023-07-30T07:52:43;17.57;;;17.27;;
7231;SDS011;3657;49.630;11.018;2023-07-30T07:55:09;17.63;;;17.23;;
7231;SDS011;3657;49.630;11.018;2023-07-30T07:57:37;18.47;;;18.07;;
7231;SDS011;3657;49.630;11.018;2023-07-30T08:00:05;18.40;;;18.10;;
7231;SDS011;3657;49.630;11.018;2023-07-30T08:02:32;17.80;;;17.50;;
7231;SDS011;3657;49.630;11.018;2023-07-30T08:04:59;17.17;;;16.77;;
7231;SDS011;3657;49.630;11.018;2023-07-30T08:07:25;17.80;;;17.50;;
7231;SDS011;3657;49.630;11.018;2023-07-30T08:09:52;16.70;;;16.30;;
7231;SDS011;3657;49.630;11.018;2023-07-30T08:12:19;17.60;;;17.30;;
7231;SDS011;3657;49.630;11.018;2023-07-30T08:14:48;17.90;;;17.60;;
7231;SDS011;3657;49.630;11.018;2023-07-30T08:17:14;17.83;;;17.53;;
7231;SDS011;3657;49.630;11.018;2023-07-30T08:19:41;18.13;;;17.73;;
7231;SDS011;3657;49.630;11.018;2023-07-30T08:22:08;19.07;;;18.67;;
7231;SDS011;3657;49.630;11.018;2023-07-30T08:24:34;18.70;;;18.30;;
7231;SDS011;3657;49.630;11.018;2023-07-30T08:27:01;17.53;;;17.23;;
7231;SDS011;3657;49.630;11.018;2023-07-30T08:29:28;18.67;;;18.27;;
7231;SDS011;3657;49.630;11.018;2023-07-30T08:31:56;19.07;;;18.67;;
7231;SDS011;3657;49.630;11.018;2023-07-30T08:34:22;18.97;;;18.57;;
7231;SDS011;3657;49.630;11.018;2023-07-30T08:36:49;19.50;;;19.07;;
7231;SDS011;3657;49.630;11.018;2023-07-30T08:39:17;19.67;;;19.27;;
7231;SDS011;3657;49.630;11.018;2023-07-30T08:41:44;18.20;;;17.80;;
7231;SDS011;3657;49.630;11.018;2023-07-30T08:44:12;17.63;;;17.33;;
7231;SDS011;3657;49.630;11.018;2023-07-30T08:46:39;18.60;;;18.30;;
7231;SDS011;3657;49.630;11.018;2023-07-30T08:49:07;18.30;;;17.90;;
7231;SDS011;3657;49.630;11.018;2023-07-30T08:51:33;19.47;;;18.87;;
7231;SDS011;3657;49.630;11.018;2023-07-30T08:54:02;17.57;;;17.27;;
7231;SDS011;3657;49.630;11.018;2023-07-30T08:56:30;17.80;;;17.40;;
7231;SDS011;3657;49.630;11.018;2023-07-30T08:58:56;17.20;;;16.90;;
7231;SDS011;3657;49.630;11.018;2023-07-30T09:01:24;18.30;;;17.90;;
7231;SDS011;3657;49.630;11.018;2023-07-30T09:03:55;18.10;;;17.80;;
7231;SDS011;3657;49.630;11.018;2023-07-30T09:06:26;16.97;;;16.67;;
7231;SDS011;3657;49.630;11.018;2023-07-30T09:08:53;17.73;;;17.33;;
7231;SDS011;3657;49.630;11.018;2023-07-30T09:11:19;17.20;;;16.90;;
7231;SDS011;3657;49.630;11.018;2023-07-30T09:13:46;17.07;;;16.77;;
7231;SDS011;3657;49.630;11.018;2023-07-30T09:16:13;16.80;;;16.40;;
7231;SDS011;3657;49.630;11.018;2023-07-30T09:18:40;16.07;;;15.77;;
7231;SDS011;3657;49.630;11.018;2023-07-30T09:21:08;15.47;;;15.17;;
7231;SDS011;3657;49.630;11.018;2023-07-30T09:23:41;17.47;;;16.87;;
7231;SDS011;3657;49.630;11.018;2023-07-30T09:26:08;16.73;;;16.43;;
7231;SDS011;3657;49.630;11.018;2023-07-30T09:28:34;17.27;;;16.97;;
7231;SDS011;3657;49.630;11.018;2023-07-30T09:31:02;16.47;;;16.13;;
7231;SDS011;3657;49.630;11.018;2023-07-30T09:33:30;17.10;;;16.80;;
7231;SDS011;3657;49.630;11.018;2023-07-30T09:35:57;16.93;;;16.07;;
7231;SDS011;3657;49.630;11.018;2023-07-30T09:38:24;16.80;;;16.50;;
7231;SDS011;3657;49.630;11.018;2023-07-30T09:40:53;17.83;;;17.43;;
7231;SDS011;3657;49.630;11.018;2023-07-30T09:43:27;17.17;;;16.33;;
7231;SDS011;3657;49.630;11.018;2023-07-30T09:45:55;17.03;;;16.73;;
7231;SDS011;3657;49.630;11.018;2023-07-30T09:48:27;16.47;;;16.17;;
7231;SDS011;3657;49.630;11.018;2023-07-30T09:50:55;17.20;;;16.90;;
7231;SDS011;3657;49.630;11.018;2023-07-30T09:53:23;17.80;;;17.50;;
7231;SDS011;3657;49.630;11.018;2023-07-30T09:55:50;17.20;;;16.90;;
7231;SDS011;3657;49.630;11.018;2023-07-30T09:58:19;16.57;;;16.20;;
7231;SDS011;3657;49.630;11.018;2023-07-30T10:00:45;17.03;;;16.73;;
7231;SDS011;3657;49.630;11.018;2023-07-30T10:03:14;16.20;;;15.90;;
7231;SDS011;3657;49.630;11.018;2023-07-30T10:05:41;16.13;;;15.83;;
7231;SDS011;3657;49.630;11.018;2023-07-30T10:08:11;17.43;;;17.13;;
7231;SDS011;3657;49.630;11.018;2023-07-30T10:10:42;15.73;;;15.43;;
7231;SDS011;3657;49.630;11.018;2023-07-30T10:13:11;16.50;;;16.20;;
7231;SDS011;3657;49.630;11.018;2023-07-30T10:15:39;15.47;;;15.20;;
7231;SDS011;3657;49.630;11.018;2023-07-30T10:18:06;15.07;;;14.87;;
7231;SDS011;3657;49.630;11.018;2023-07-30T10:20:33;16.23;;;15.93;;
7231;SDS011;3657;49.630;11.018;2023-07-30T10:23:00;15.73;;;15.53;;
7231;SDS011;3657;49.630;11.018;2023-07-30T10:25:30;15.50;;;15.20;;
7231;SDS011;3657;49.630;11.018;2023-07-30T10:28:10;15.03;;;14.73;;
7231;SDS011;3657;49.630;11.018;2023-07-30T10:30:57;16.57;;;16.27;;
7231;SDS011;3657;49.630;11.018;2023-07-30T10:33:28;15.60;;;15.30;;
7231;SDS011;3657;49.630;11.018;2023-07-30T10:36:10;15.97;;;15.67;;
7231;SDS011;3657;49.630;11.018;2023-07-30T10:38:37;15.10;;;14.80;;
7231;SDS011;3657;49.630;11.018;2023-07-30T10:41:07;15.83;;;15.53;;
7231;SDS011;3657;49.630;11.018;2023-07-30T10:43:37;15.57;;;15.17;;
7231;SDS011;3657;49.630;11.018;2023-07-30T10:46:05;17.03;;;16.60;;
7231;SDS011;3657;49.630;11.018;2023-07-30T10:48:33;17.00;;;16.70;;
7231;SDS011;3657;49.630;11.018;2023-07-30T10:51:01;17.13;;;16.83;;
7231;SDS011;3657;49.630;11.018;2023-07-30T10:53:29;16.47;;;16.17;;
7231;SDS011;3657;49.630;11.018;2023-07-30T10:55:57;14.63;;;14.43;;
7231;SDS011;3657;49.630;11.018;2023-07-30T10:58:26;16.00;;;15.70;;
7231;SDS011;3657;49.630;11.018;2023-07-30T11:00:54;14.93;;;14.73;;
7231;SDS011;3657;49.630;11.018;2023-07-30T11:03:23;15.40;;;15.10;;
7231;SDS011;3657;49.630;11.018;2023-07-30T11:05:51;14.80;;;14.60;;
7231;SDS011;3657;49.630;11.018;2023-07-30T11:08:18;15.70;;;15.43;;
7231;SDS011;3657;49.630;11.018;2023-07-30T11:10:45;15.77;;;15.47;;
7231;SDS011;3657;49.630;11.018;2023-07-30T11:13:13;15.57;;;15.27;;
7231;SDS011;3657;49.630;11.018;2023-07-30T11:15:40;15.23;;;14.93;;
7231;SDS011;3657;49.630;11.018;2023-07-30T11:18:09;15.93;;;15.63;;
7231;SDS011;3657;49.630;11.018;2023-07-30T11:20:36;16.37;;;16.07;;
7231;SDS011;3657;49.630;11.018;2023-07-30T11:23:03;15.23;;;14.93;;
7231;SDS011;3657;49.630;11.018;2023-07-30T11:25:45;16.33;;;16.03;;
7231;SDS011;3657;49.630;11.018;2023-07-30T11:28:12;16.37;;;16.07;;
7231;SDS011;3657;49.630;11.018;2023-07-30T11:30:38;16.07;;;15.77;;
7231;SDS011;3657;49.630;11.018;2023-07-30T11:33:05;16.37;;;16.07;;
7231;SDS011;3657;49.630;11.018;2023-07-30T11:35:33;15.70;;;15.40;;
7231;SDS011;3657;49.630;11.018;2023-07-30T11:38:00;15.20;;;15.00;;
7231;SDS011;3657;49.630;11.018;2023-07-30T11:40:27;14.53;;;14.33;;
7231;SDS011;3657;49.630;11.018;2023-07-30T11:42:54;15.33;;;15.13;;
7231;SDS011;3657;49.630;11.018;2023-07-30T11:45:21;14.20;;;14.00;;
7231;SDS011;3657;49.630;11.018;2023-07-30T11:47:49;15.77;;;15.47;;
7231;SDS011;3657;49.630;11.018;2023-07-30T11:50:16;16.27;;;15.97;;
7231;SDS011;3657;49.630;11.018;2023-07-30T11:52:54;16.80;;;16.50;;
7231;SDS011;3657;49.630;11.018;2023-07-30T11:55:21;15.43;;;15.13;;
7231;SDS011;3657;49.630;11.018;2023-07-30T11:57:49;16.90;;;16.50;;
7231;SDS011;3657;49.630;11.018;2023-07-30T12:00:16;17.43;;;17.13;;
7231;SDS011;3657;49.630;11.018;2023-07-30T12:02:46;15.53;;;15.33;;
7231;SDS011;3657;49.630;11.018;2023-07-30T12:05:12;15.30;;;15.00;;
7231;SDS011;3657;49.630;11.018;2023-07-30T12:07:42;15.20;;;14.90;;
7231;SDS011;3657;49.630;11.018;2023-07-30T12:10:14;15.53;;;15.23;;
7231;SDS011;3657;49.630;11.018;2023-07-30T12:12:44;16.23;;;15.93;;
7231;SDS011;3657;49.630;11.018;2023-07-30T12:15:11;16.57;;;16.27;;
7231;SDS011;3657;49.630;11.018;2023-07-30T12:17:38;17.80;;;17.27;;
7231;SDS011;3657;49.630;11.018;2023-07-30T12:20:05;17.87;;;17.50;;
7231;SDS011;3657;49.630;11.018;2023-07-30T12:22:32;16.40;;;16.10;;
7231;SDS011;3657;49.630;11.018;2023-07-30T12:25:00;16.73;;;16.43;;
7231;SDS011;3657;49.630;11.018;2023-07-30T12:27:28;17.23;;;16.93;;
7231;SDS011;3657;49.630;11.018;2023-07-30T12:29:55;16.87;;;16.57;;
7231;SDS011;3657;49.630;11.018;2023-07-30T12:32:22;16.53;;;16.23;;
7231;SDS011;3657;49.630;11.018;2023-07-30T12:34:49;17.03;;;16.70;;
7231;SDS011;3657;49.630;11.018;2023-07-30T12:37:16;16.07;;;15.50;;
7231;SDS011;3657;49.630;11.018;2023-07-30T12:39:42;16.10;;;15.50;;
7231;SDS011;3657;49.630;11.018;2023-07-30T12:42:09;17.97;;;17.40;;
7231;SDS011;3657;49.630;11.018;2023-07-30T12:44:37;16.30;;;15.90;;
7231;SDS011;3657;49.630;11.018;2023-07-30T12:47:04;16.20;;;15.90;;
7231;SDS011;3657;49.630;11.018;2023-07-30T12:49:31;16.17;;;15.77;;
7231;SDS011;3657;49.630;11.018;2023-07-30T12:51:58;16.40;;;16.10;;
7231;SDS011;3657;49.630;11.018;2023-07-30T12:54:24;16.00;;;15.70;;
7231;SDS011;3657;49.630;11.018;2023-07-30T12:56:51;15.83;;;15.53;;
7231;SDS011;3657;49.630;11.018;2023-07-30T12:59:18;15.17;;;14.87;;
7231;SDS011;3657;49.630;11.018;2023-07-30T13:01:46;17.67;;;17.37;;
7231;SDS011;3657;49.630;11.018;2023-07-30T13:04:12;14.87;;;14.57;;
7231;SDS011;3657;49.630;11.018;2023-07-30T13:06:39;17.50;;;17.10;;
7231;SDS011;3657;49.630;11.018;2023-07-30T13:09:06;17.20;;;16.90;;
7231;SDS011;3657;49.630;11.018;2023-07-30T13:11:32;17.57;;;17.20;;
7231;SDS011;3657;49.630;11.018;2023-07-30T13:13:59;17.23;;;16.57;;
7231;SDS011;3657;49.630;11.018;2023-07-30T13:16:26;17.40;;;17.10;;
7231;SDS011;3657;49.630;11.018;2023-07-30T13:18:54;18.20;;;17.80;;
7231;SDS011;3657;49.630;11.018;2023-07-30T13:21:22;17.50;;;17.10;;
7231;SDS011;3657;49.630;11.018;2023-07-30T13:23:48;16.23;;;15.83;;
7231;SDS011;3657;49.630;11.018;2023-07-30T13:26:16;17.73;;;17.43;;
7231;SDS011;3657;49.630;11.018;2023-07-30T13:28:43;19.63;;;18.90;;
7231;SDS011;3657;49.630;11.018;2023-07-30T13:31:10;16.57;;;16.27;;
7231;SDS011;3657;49.630;11.018;2023-07-30T13:33:37;17.53;;;17.23;;
7231;SDS011;3657;49.630;11.018;2023-07-30T13:36:05;13.37;;;13.17;;
7231;SDS011;3657;49.630;11.018;2023-07-30T13:38:33;17.10;;;16.80;;
7231;SDS011;3657;49.630;11.018;2023-07-30T13:41:00;16.87;;;16.57;;
7231;SDS011;3657;49.630;11.018;2023-07-30T13:43:26;16.20;;;15.90;;
7231;SDS011;3657;49.630;11.018;2023-07-30T13:45:53;16.03;;;15.73;;
7231;SDS011;3657;49.630;11.018;2023-07-30T13:48:20;16.40;;;16.00;;
7231;SDS011;3657;49.630;11.018;2023-07-30T13:50:46;15.90;;;15.60;;
7231;SDS011;3657;49.630;11.018;2023-07-30T13:53:14;15.77;;;15.47;;
7231;SDS011;3657;49.630;11.018;2023-07-30T13:55:41;16.80;;;16.50;;
7231;SDS011;3657;49.630;11.018;2023-07-30T13:58:08;17.07;;;16.77;;
7231;SDS011;3657;49.630;11.018;2023-07-30T14:00:35;15.33;;;15.03;;
7231;SDS011;3657;49.630;11.018;2023-07-30T14:03:01;15.80;;;15.40;;
7231;SDS011;3657;49.630;11.018;2023-07-30T14:05:28;16.80;;;16.40;;
7231;SDS011;3657;49.630;11.018;2023-07-30T14:07:55;15.83;;;15.53;;
7231;SDS011;3657;49.630;11.018;2023-07-30T14:10:23;16.50;;;16.20;;
7231;SDS011;3657;49.630;11.018;2023-07-30T14:12:51;16.43;;;16.13;;
7231;SDS011;3657;49.630;11.018;2023-07-30T14:15:18;16.57;;;16.27;;
7231;SDS011;3657;49.630;11.018;2023-07-30T14:17:45;15.40;;;15.20;;
7231;SDS011;3657;49.630;11.018;2023-07-30T14:20:11;15.63;;;15.30;;
7231;SDS011;3657;49.630;11.018;2023-07-30T14:22:38;15.30;;;15.00;;
7231;SDS011;3657;49.630;11.018;2023-07-30T14:25:05;14.83;;;14.53;;
7231;SDS011;3657;49.630;11.018;2023-07-30T14:27:33;15.43;;;15.23;;
7231;SDS011;3657;49.630;11.018;2023-07-30T14:30:00;15.67;;;15.37;;
7231;SDS011;3657;49.630;11.018;2023-07-30T14:32:27;14.37;;;14.17;;
7231;SDS011;3657;49.630;11.018;2023-07-30T14:34:54;15.40;;;15.17;;